createdAt,value
2019-04-30T00:00:55.395Z,96.0037
2019-04-30T00:02:00.878Z,95.8190
2019-04-30T00:03:06.852Z,96.0525
2019-04-30T00:04:12.847Z,95.9258
2019-04-30T00:05:18.850Z,95.7107
2019-04-30T00:06:27.325Z,95.6603
2019-04-30T00:07:35.724Z,95.5444
2019-04-30T00:08:45.149Z,95.5322
2019-04-30T00:09:54.048Z,95.5505
2019-04-30T00:11:00.847Z,96.1624
2019-04-30T00:12:05.939Z,95.8663
2019-04-30T00:13:17.505Z,96.0357
2019-04-30T00:14:22.907Z,96.2676
2019-04-30T00:15:27.218Z,96.5438
2019-04-30T00:16:36.348Z,96.5988
2019-04-30T00:17:45.606Z,96.8917
2019-04-30T00:18:59.927Z,96.8231
2019-04-30T00:20:01.883Z,96.8963
2019-04-30T00:21:10.003Z,97.0321
2019-04-30T00:22:30.521Z,97.2168
2019-04-30T00:23:30.715Z,97.2305
2019-04-30T00:24:39.840Z,97.1298
2019-04-30T00:25:46.826Z,96.6903
2019-04-30T00:26:52.483Z,96.0937
2019-04-30T00:28:00.357Z,96.2737
2019-04-30T00:29:08.167Z,96.4965
2019-04-30T00:30:15.466Z,96.3928
2019-04-30T00:31:23.862Z,96.4324
2019-04-30T00:32:30.210Z,96.3745
2019-04-30T00:33:35.871Z,96.4019
2019-04-30T00:34:40.252Z,96.5057
2019-04-30T00:35:49.711Z,96.5148
2019-04-30T00:36:56.207Z,96.6201
2019-04-30T00:38:01.933Z,96.5743
2019-04-30T00:39:13.183Z,96.2356
2019-04-30T00:40:21.752Z,96.5072
2019-04-30T00:41:30.177Z,96.8811
2019-04-30T00:42:35.923Z,96.4324
2019-04-30T00:43:46.476Z,96.2325
2019-04-30T00:44:52.110Z,95.8297
2019-04-30T00:45:58.173Z,95.6863
2019-04-30T00:47:04.918Z,95.7107
2019-04-30T00:48:19.828Z,95.9396
2019-04-30T00:49:26.531Z,96.1730
2019-04-30T00:50:33.952Z,95.4345
2019-04-30T00:51:41.799Z,95.1431
2019-04-30T00:52:46.330Z,96.0204
2019-04-30T00:53:52.584Z,95.8297
2019-04-30T00:55:00.361Z,95.6771
2019-04-30T00:56:07.922Z,95.4162
2019-04-30T00:57:15.164Z,95.5322
2019-04-30T00:58:28.538Z,95.6863
2019-04-30T00:59:30.856Z,95.7595
2019-04-30T01:00:37.165Z,95.5352
2019-04-30T01:01:43.572Z,94.2779
2019-04-30T01:02:52.879Z,94.2946
2019-04-30T01:03:57.973Z,94.3832
2019-04-30T01:05:08.623Z,94.1161
2019-04-30T01:06:17.133Z,94.2122
2019-04-30T01:07:23.837Z,94.3450
2019-04-30T01:08:28.842Z,93.7224
2019-04-30T01:09:35.414Z,93.7606
2019-04-30T01:10:40.929Z,94.1299
2019-04-30T01:11:48.105Z,93.2937
2019-04-30T01:12:53.928Z,93.9895
2019-04-30T01:13:59.881Z,93.2006
2019-04-30T01:15:06.717Z,93.5088
2019-04-30T01:16:15.954Z,93.2326
2019-04-30T01:17:21.951Z,94.1527
2019-04-30T01:18:31.822Z,94.2901
2019-04-30T01:19:39.531Z,94.5296
2019-04-30T01:20:44.704Z,94.4701
2019-04-30T01:21:50.927Z,95.1843
2019-04-30T01:22:58.568Z,94.5846
2019-04-30T01:24:03.864Z,94.6014
2019-04-30T01:25:13.294Z,95.1232
2019-04-30T01:26:18.743Z,95.7366
2019-04-30T01:27:23.809Z,95.2117
2019-04-30T01:28:29.116Z,95.4345
2019-04-30T01:29:40.914Z,95.4177
2019-04-30T01:30:45.025Z,95.8007
2019-04-30T01:31:50.985Z,95.1431
2019-04-30T01:32:58.148Z,94.7753
2019-04-30T01:34:12.357Z,95.3124
2019-04-30T01:35:15.913Z,95.2697
2019-04-30T01:36:21.890Z,95.5169
2019-04-30T01:37:31.359Z,95.8526
2019-04-30T01:38:40.075Z,95.9579
2019-04-30T01:39:45.981Z,96.2600
2019-04-30T01:40:51.874Z,95.9487
2019-04-30T01:41:58.594Z,95.9014
2019-04-30T01:43:04.162Z,95.7198
2019-04-30T01:44:11.925Z,95.9655
2019-04-30T01:45:18.776Z,96.5164
2019-04-30T01:46:25.214Z,96.6155
2019-04-30T01:47:31.381Z,96.5835
2019-04-30T01:48:36.836Z,96.2783
2019-04-30T01:49:44.654Z,96.5896
2019-04-30T01:50:49.866Z,96.9314
2019-04-30T01:51:57.309Z,97.2763
2019-04-30T01:53:04.853Z,97.5082
2019-04-30T01:54:17.947Z,97.4807
2019-04-30T01:55:23.945Z,97.1054
2019-04-30T01:56:30.169Z,96.9146
2019-04-30T01:57:35.879Z,96.5438
2019-04-30T01:58:40.895Z,96.3912
2019-04-30T01:59:48.587Z,96.2585
2019-04-30T02:00:53.937Z,96.5377
2019-04-30T02:01:59.947Z,96.0891
2019-04-30T02:03:05.599Z,95.8068
2019-04-30T02:04:10.218Z,96.5026
2019-04-30T02:05:15.775Z,97.1237
2019-04-30T02:06:20.856Z,97.5128
2019-04-30T02:07:24.853Z,97.5586
2019-04-30T02:08:29.994Z,96.3287
2019-04-30T02:09:35.879Z,95.1919
2019-04-30T02:10:40.854Z,94.8821
2019-04-30T02:11:45.857Z,94.5205
2019-04-30T02:12:51.156Z,95.6649
2019-04-30T02:13:56.867Z,96.4294
2019-04-30T02:15:02.938Z,96.7361
2019-04-30T02:16:08.885Z,96.4279
2019-04-30T02:17:13.937Z,95.8648
2019-04-30T02:18:19.906Z,95.9289
2019-04-30T02:19:25.822Z,96.0113
2019-04-30T02:20:31.831Z,96.3149
2019-04-30T02:21:38.285Z,96.3653
2019-04-30T02:22:43.855Z,97.0199
2019-04-30T02:23:49.335Z,97.4670
2019-04-30T02:24:55.433Z,97.7508
2019-04-30T02:26:00.835Z,97.9263
2019-04-30T02:27:06.226Z,96.7437
2019-04-30T02:28:11.813Z,96.5347
2019-04-30T02:29:16.895Z,96.7254
2019-04-30T02:30:22.835Z,96.7819
2019-04-30T02:31:30.692Z,96.8444
2019-04-30T02:32:39.371Z,97.2168
2019-04-30T02:33:44.811Z,97.1420
2019-04-30T02:34:49.946Z,96.6628
2019-04-30T02:35:55.853Z,96.7910
2019-04-30T02:37:00.919Z,96.8765
2019-04-30T02:38:06.894Z,96.2371
2019-04-30T02:39:11.893Z,96.5103
2019-04-30T02:40:17.047Z,95.9533
2019-04-30T02:41:23.441Z,96.7819
2019-04-30T02:42:29.721Z,96.4706
2019-04-30T02:43:35.916Z,96.1120
2019-04-30T02:44:41.855Z,95.1751
2019-04-30T02:45:49.596Z,95.0637
2019-04-30T02:46:55.216Z,95.2834
2019-04-30T02:48:01.102Z,95.5779
2019-04-30T02:49:07.349Z,96.5835
2019-04-30T02:50:19.840Z,96.1227
2019-04-30T02:51:25.938Z,96.4416
2019-04-30T02:52:31.865Z,96.2417
2019-04-30T02:53:40.192Z,95.5489
2019-04-30T02:54:45.925Z,95.2895
2019-04-30T02:55:51.874Z,95.3475
2019-04-30T02:56:59.558Z,95.1461
2019-04-30T02:58:04.877Z,96.1578
2019-04-30T02:59:10.856Z,96.0769
2019-04-30T03:00:15.837Z,96.4065
2019-04-30T03:01:20.935Z,96.3195
2019-04-30T03:02:29.182Z,95.8755
2019-04-30T03:03:34.888Z,96.0113
2019-04-30T03:04:40.010Z,95.3399
2019-04-30T03:05:45.917Z,95.1141
2019-04-30T03:06:51.225Z,94.7631
2019-04-30T03:07:56.214Z,95.1507
2019-04-30T03:09:01.447Z,94.4747
2019-04-30T03:10:09.780Z,94.1726
2019-04-30T03:11:15.786Z,94.7906
2019-04-30T03:12:21.805Z,95.3704
2019-04-30T03:13:29.720Z,94.9172
2019-04-30T03:14:35.843Z,95.3338
2019-04-30T03:15:41.848Z,95.1049
2019-04-30T03:16:52.577Z,94.9599
2019-04-30T03:17:56.878Z,95.1507
2019-04-30T03:19:02.907Z,95.4177
2019-04-30T03:20:10.656Z,95.4208
2019-04-30T03:21:19.178Z,95.6924
2019-04-30T03:22:24.922Z,95.3658
2019-04-30T03:23:30.230Z,95.3353
2019-04-30T03:24:35.927Z,95.3475
2019-04-30T03:25:41.994Z,96.0342
2019-04-30T03:26:49.668Z,96.0403
2019-04-30T03:27:55.808Z,95.6863
2019-04-30T03:29:01.047Z,95.9014
2019-04-30T03:30:06.830Z,96.1822
2019-04-30T03:31:12.689Z,96.0433
2019-04-30T03:32:22.524Z,95.8205
2019-04-30T03:33:32.603Z,95.3307
2019-04-30T03:34:42.148Z,95.1705
2019-04-30T03:35:53.686Z,95.2438
2019-04-30T03:37:01.621Z,94.7311
2019-04-30T03:38:09.619Z,95.2117
2019-04-30T03:39:15.215Z,95.5734
2019-04-30T03:40:20.290Z,96.0296
2019-04-30T03:41:25.542Z,96.8002
2019-04-30T03:42:30.815Z,96.2173
2019-04-30T03:43:36.623Z,95.9579
2019-04-30T03:44:41.853Z,96.5805
2019-04-30T03:45:49.702Z,97.0092
2019-04-30T03:46:55.929Z,96.9314
2019-04-30T03:48:01.901Z,97.3892
2019-04-30T03:49:10.596Z,97.6516
2019-04-30T03:50:19.838Z,97.8531
2019-04-30T03:51:25.873Z,97.9217
2019-04-30T03:52:30.868Z,97.9904
2019-04-30T03:53:39.685Z,98.0301
2019-04-30T03:54:49.289Z,98.1720
2019-04-30T03:55:55.163Z,98.2467
2019-04-30T03:57:00.864Z,98.3047
2019-04-30T03:58:09.086Z,98.3963
2019-04-30T03:59:14.222Z,98.5397
2019-04-30T04:00:20.393Z,98.6160
2019-04-30T04:01:25.804Z,98.7488
2019-04-30T04:02:30.431Z,98.7915
2019-04-30T04:03:35.900Z,98.9502
2019-04-30T04:04:41.870Z,99.0051
2019-04-30T04:05:49.588Z,99.0967
2019-04-30T04:06:54.904Z,99.0661
2019-04-30T04:08:00.892Z,99.1012
2019-04-30T04:09:06.952Z,99.0005
2019-04-30T04:10:12.834Z,98.8235
2019-04-30T04:11:19.917Z,98.2269
2019-04-30T04:12:25.884Z,97.6562
2019-04-30T04:13:33.120Z,97.2976
2019-04-30T04:14:39.440Z,97.4640
2019-04-30T04:15:44.201Z,97.4121
2019-04-30T04:16:50.931Z,96.8551
2019-04-30T04:17:56.885Z,96.7178
2019-04-30T04:19:03.135Z,97.3571
2019-04-30T04:20:10.738Z,97.6471
2019-04-30T04:21:20.175Z,97.2625
2019-04-30T04:22:25.911Z,96.4797
2019-04-30T04:23:32.812Z,95.9304
2019-04-30T04:24:40.089Z,96.1074
2019-04-30T04:25:45.854Z,96.0861
2019-04-30T04:26:50.811Z,96.3378
2019-04-30T04:27:55.868Z,96.4691
2019-04-30T04:29:00.906Z,96.6628
2019-04-30T04:30:06.840Z,96.7300
2019-04-30T04:31:11.845Z,96.7544
2019-04-30T04:32:16.881Z,96.7529
2019-04-30T04:33:22.918Z,96.6217
2019-04-30T04:34:30.276Z,96.5072
2019-04-30T04:35:35.849Z,96.7681
2019-04-30T04:36:43.315Z,96.9360
2019-04-30T04:37:49.408Z,97.1069
2019-04-30T04:38:54.818Z,97.1237
2019-04-30T04:39:59.868Z,97.1893
2019-04-30T04:41:04.795Z,97.1328
2019-04-30T04:42:10.129Z,97.1664
2019-04-30T04:43:15.914Z,97.1893
2019-04-30T04:44:21.864Z,97.3480
2019-04-30T04:45:27.308Z,97.4395
2019-04-30T04:46:32.856Z,97.6181
2019-04-30T04:47:40.147Z,97.6455
2019-04-30T04:48:45.835Z,97.5448
2019-04-30T04:49:53.942Z,97.4182
2019-04-30T04:51:00.311Z,97.8302
2019-04-30T04:52:05.867Z,98.1491
2019-04-30T04:53:11.750Z,98.2742
2019-04-30T04:54:16.856Z,98.3841
2019-04-30T04:55:22.437Z,98.4848
2019-04-30T04:56:30.253Z,98.5565
2019-04-30T04:57:35.201Z,98.5809
2019-04-30T04:58:40.865Z,98.7213
2019-04-30T04:59:45.818Z,98.7823
2019-04-30T05:00:52.249Z,98.7305
2019-04-30T05:01:59.780Z,98.8129
2019-04-30T05:03:05.903Z,98.9319
2019-04-30T05:04:11.735Z,98.9334
2019-04-30T05:05:19.435Z,98.9548
2019-04-30T05:06:24.949Z,99.0234
2019-04-30T05:07:30.937Z,99.0372
2019-04-30T05:08:36.831Z,99.1119
2019-04-30T05:09:41.894Z,99.1516
2019-04-30T05:10:49.374Z,99.1562
2019-04-30T05:11:54.958Z,99.1623
2019-04-30T05:13:00.903Z,99.2065
2019-04-30T05:14:08.371Z,99.2218
2019-04-30T05:15:15.201Z,99.2767
2019-04-30T05:16:21.320Z,99.2538
2019-04-30T05:17:26.806Z,99.1791
2019-04-30T05:18:32.887Z,99.1653
2019-04-30T05:19:38.868Z,99.0661
2019-04-30T05:20:43.861Z,99.0417
2019-04-30T05:21:51.508Z,99.1257
2019-04-30T05:22:58.485Z,99.0799
2019-04-30T05:24:04.022Z,99.1119
2019-04-30T05:25:09.277Z,99.0555
2019-04-30T05:26:14.959Z,99.1562
2019-04-30T05:27:20.835Z,99.2264
2019-04-30T05:28:25.910Z,99.3164
2019-04-30T05:29:31.837Z,99.2843
2019-04-30T05:30:36.236Z,99.1745
2019-04-30T05:31:41.903Z,99.0204
2019-04-30T05:32:50.398Z,99.0234
2019-04-30T05:33:55.857Z,98.9609
2019-04-30T05:34:59.849Z,98.7732
2019-04-30T05:36:05.205Z,98.7228
2019-04-30T05:37:10.222Z,98.6496
2019-04-30T05:38:16.338Z,98.5534
2019-04-30T05:39:21.858Z,98.2040
2019-04-30T05:40:28.778Z,98.2330
2019-04-30T05:41:33.826Z,97.7478
2019-04-30T05:42:38.918Z,97.8347
2019-04-30T05:43:44.939Z,97.6883
2019-04-30T05:44:49.933Z,97.7661
2019-04-30T05:45:55.811Z,98.0224
2019-04-30T05:47:00.855Z,97.9171
2019-04-30T05:48:06.081Z,97.2992
2019-04-30T05:49:12.586Z,97.1878
2019-04-30T05:50:19.762Z,96.8231
2019-04-30T05:51:26.637Z,93.6446
2019-04-30T05:52:31.942Z,91.7693
2019-04-30T05:53:39.361Z,89.2500
2019-04-30T05:54:45.371Z,90.7790
2019-04-30T05:55:51.241Z,91.9707
2019-04-30T05:56:56.240Z,91.2429
2019-04-30T05:58:02.687Z,90.6508
2019-04-30T05:59:09.023Z,90.9529
2019-04-30T06:00:14.949Z,91.2001
2019-04-30T06:01:20.857Z,91.4794
2019-04-30T06:02:28.049Z,91.9112
2019-04-30T06:03:35.935Z,90.0282
2019-04-30T06:04:41.159Z,90.4952
2019-04-30T06:05:46.851Z,90.1442
2019-04-30T06:06:52.163Z,89.0593
2019-04-30T06:07:59.341Z,90.8293
2019-04-30T06:09:10.616Z,90.6554
2019-04-30T06:10:14.226Z,88.9494
2019-04-30T06:11:20.168Z,88.6885
2019-04-30T06:12:25.792Z,89.7169
2019-04-30T06:13:32.063Z,88.9677
2019-04-30T06:14:48.400Z,87.5349
2019-04-30T06:15:48.978Z,88.1621
2019-04-30T06:16:54.224Z,89.1646
2019-04-30T06:18:06.806Z,86.2013
2019-04-30T06:19:11.366Z,86.1936
2019-04-30T06:20:18.209Z,86.9062
2019-04-30T06:21:24.987Z,86.0609
2019-04-30T06:22:31.224Z,88.0232
2019-04-30T06:23:36.970Z,87.4235
2019-04-30T06:24:42.812Z,86.8574
2019-04-30T06:25:57.554Z,88.1605
2019-04-30T06:26:58.963Z,87.2511
2019-04-30T06:28:04.995Z,87.7256
2019-04-30T06:29:10.806Z,87.0909
2019-04-30T06:30:16.947Z,86.5217
2019-04-30T06:31:32.280Z,86.2287
2019-04-30T06:32:34.192Z,87.7089
2019-04-30T06:33:39.872Z,88.0613
2019-04-30T06:34:45.962Z,88.3497
2019-04-30T06:35:52.326Z,88.6595
2019-04-30T06:36:57.249Z,87.7089
2019-04-30T06:38:02.261Z,87.5578
2019-04-30T06:39:08.673Z,87.2404
2019-04-30T06:40:13.939Z,87.6616
2019-04-30T06:41:20.323Z,85.3971
2019-04-30T06:42:26.054Z,87.3564
2019-04-30T06:43:32.078Z,85.4337
2019-04-30T06:44:41.668Z,85.9907
2019-04-30T06:45:50.898Z,86.5537
2019-04-30T06:46:58.834Z,85.5940
2019-04-30T06:48:08.741Z,86.6056
2019-04-30T06:49:14.914Z,84.6830
2019-04-30T06:50:21.426Z,85.8442
2019-04-30T06:51:30.394Z,87.2465
2019-04-30T06:52:38.879Z,84.9653
2019-04-30T06:53:44.197Z,84.6769
2019-04-30T06:54:51.365Z,87.6387
2019-04-30T06:55:56.234Z,84.9287
2019-04-30T06:57:02.082Z,84.5090
2019-04-30T06:58:14.169Z,84.8844
2019-04-30T06:59:20.357Z,83.4134
2019-04-30T07:00:32.926Z,83.6667
2019-04-30T07:01:38.804Z,83.6011
2019-04-30T07:02:44.901Z,84.4266
2019-04-30T07:03:52.316Z,87.0268
2019-04-30T07:04:59.430Z,84.8142
2019-04-30T07:06:05.708Z,85.7893
2019-04-30T07:07:14.327Z,84.1367
2019-04-30T07:08:35.758Z,84.1291
2019-04-30T07:09:51.136Z,83.0060
2019-04-30T07:10:54.958Z,83.6561
2019-04-30T07:11:56.869Z,85.7404
2019-04-30T07:13:03.448Z,83.0976
2019-04-30T07:14:09.654Z,85.0584
2019-04-30T07:15:14.922Z,82.7558
2019-04-30T07:16:20.913Z,85.9831
2019-04-30T07:17:29.096Z,84.9836
2019-04-30T07:18:34.348Z,84.0955
2019-04-30T07:19:53.370Z,83.0793
2019-04-30T07:20:50.902Z,82.5345
2019-04-30T07:21:55.267Z,84.2710
2019-04-30T07:23:03.361Z,84.7639
2019-04-30T07:24:09.472Z,83.0884
2019-04-30T07:25:15.475Z,82.3850
2019-04-30T07:26:24.408Z,81.3947
2019-04-30T07:27:32.405Z,81.6419
2019-04-30T07:28:46.539Z,83.0213
2019-04-30T07:29:49.836Z,82.3758
2019-04-30T07:31:10.721Z,81.8570
2019-04-30T07:33:29.545Z,84.2390
2019-04-30T07:35:55.271Z,83.3631
2019-04-30T07:37:13.287Z,82.1866
2019-04-30T07:42:00.265Z,78.5855
2019-04-30T07:43:05.270Z,79.9893
2019-04-30T07:44:29.453Z,80.5798
2019-04-30T07:45:25.441Z,82.0859
2019-04-30T07:46:35.253Z,83.4882
2019-04-30T07:47:42.397Z,80.5676
2019-04-30T07:48:50.216Z,80.2182
2019-04-30T07:49:56.038Z,80.0412
2019-04-30T07:51:01.876Z,79.1943
2019-04-30T07:52:10.267Z,79.4217
2019-04-30T07:53:19.710Z,79.4186
2019-04-30T07:54:25.545Z,78.9960
2019-04-30T07:55:30.912Z,80.3342
2019-04-30T07:56:40.519Z,79.3362
2019-04-30T07:57:50.245Z,81.1856
2019-04-30T07:59:00.770Z,78.2864
2019-04-30T08:00:07.209Z,79.3912
2019-04-30T08:01:12.224Z,80.3754
2019-04-30T08:02:17.202Z,79.5377
2019-04-30T08:03:24.503Z,76.9650
2019-04-30T08:04:31.128Z,78.6984
2019-04-30T08:05:40.084Z,77.1069
2019-04-30T08:06:46.151Z,81.3077
2019-04-30T08:07:52.268Z,81.0620
2019-04-30T08:09:00.940Z,78.3551
2019-04-30T08:10:08.744Z,76.4736
2019-04-30T08:11:25.715Z,76.6766
2019-04-30T08:13:49.171Z,80.3250
2019-04-30T08:14:55.332Z,75.9655
2019-04-30T08:16:00.525Z,76.8811
2019-04-30T08:17:06.289Z,76.3821
2019-04-30T08:18:12.061Z,76.6064
2019-04-30T08:19:21.707Z,78.0911
2019-04-30T08:20:26.483Z,78.7350
2019-04-30T08:21:32.635Z,78.6038
2019-04-30T08:26:28.673Z,78.5016
2019-04-30T08:27:34.642Z,78.4024
2019-04-30T08:28:41.121Z,78.0575
2019-04-30T08:29:46.215Z,79.5911
2019-04-30T08:30:51.842Z,77.9583
2019-04-30T08:31:59.196Z,79.1836
2019-04-30T08:34:31.331Z,78.4375
2019-04-30T08:37:16.726Z,78.7961
2019-04-30T08:42:04.702Z,79.4553
2019-04-30T08:43:10.447Z,80.4883
2019-04-30T08:46:49.094Z,79.4080
2019-04-30T08:47:54.423Z,80.7141
2019-04-30T08:49:02.875Z,80.1221
2019-04-30T08:50:11.146Z,79.6200
2019-04-30T08:51:16.558Z,81.2268
2019-04-30T08:53:44.259Z,77.2061
2019-04-30T08:56:09.984Z,78.4894
2019-04-30T08:57:19.110Z,78.4436
2019-04-30T08:58:24.295Z,79.5926
2019-04-30T08:59:30.089Z,79.7879
2019-04-30T09:00:35.265Z,82.8962
2019-04-30T09:01:45.353Z,79.4049
2019-04-30T09:02:50.334Z,78.9593
2019-04-30T09:03:55.245Z,78.5336
2019-04-30T09:05:01.298Z,78.9059
2019-04-30T09:06:06.283Z,78.3932
2019-04-30T09:07:12.754Z,78.8998
2019-04-30T09:08:19.240Z,79.2065
2019-04-30T09:09:25.327Z,79.0890
2019-04-30T09:10:31.145Z,79.5102
2019-04-30T09:11:50.100Z,81.3184
2019-04-30T09:12:52.890Z,77.8927
2019-04-30T09:13:59.452Z,80.7919
2019-04-30T09:16:25.242Z,76.6430
2019-04-30T09:17:33.782Z,78.2498
2019-04-30T09:18:39.928Z,76.7529
2019-04-30T09:19:45.262Z,76.8872
2019-04-30T09:20:53.171Z,80.6943
2019-04-30T09:23:13.730Z,80.9964
2019-04-30T09:24:42.376Z,79.2584
2019-04-30T09:25:49.534Z,78.9685
2019-04-30T09:27:15.487Z,77.9797
2019-04-30T09:29:39.082Z,77.7752
2019-04-30T09:32:01.408Z,78.2910
2019-04-30T09:34:22.952Z,79.2157
2019-04-30T09:35:31.787Z,79.2813
2019-04-30T09:38:01.386Z,78.1369
2019-04-30T09:39:08.955Z,76.8856
2019-04-30T09:40:19.082Z,77.4090
2019-04-30T09:42:52.991Z,77.4990
2019-04-30T09:45:16.347Z,79.0570
2019-04-30T09:46:27.058Z,80.1999
2019-04-30T09:47:33.477Z,79.6689
2019-04-30T09:49:59.723Z,76.7483
2019-04-30T09:51:09.813Z,74.4869
2019-04-30T09:52:19.325Z,78.8968
2019-04-30T09:53:24.298Z,76.4279
2019-04-30T09:54:29.904Z,77.0886
2019-04-30T09:55:35.294Z,77.1466
2019-04-30T09:57:55.392Z,78.3475
2019-04-30T09:59:22.745Z,79.7574
2019-04-30T10:01:51.234Z,77.6608
2019-04-30T10:02:59.360Z,78.8556
2019-04-30T10:04:10.266Z,77.8607
2019-04-30T10:05:16.618Z,79.0875
2019-04-30T10:06:22.398Z,78.3200
2019-04-30T10:08:48.305Z,80.6760
2019-04-30T10:11:13.272Z,77.3861
2019-04-30T10:13:36.237Z,78.6404
2019-04-30T10:14:42.450Z,77.8881
2019-04-30T10:19:45.449Z,77.5921
2019-04-30T10:20:51.306Z,76.5423
2019-04-30T10:21:58.975Z,77.1069
2019-04-30T10:24:43.305Z,78.5580
2019-04-30T10:27:07.064Z,76.7178
2019-04-30T10:32:32.310Z,76.7269
2019-04-30T10:33:39.471Z,77.1283
2019-04-30T10:34:44.257Z,75.7549
2019-04-30T10:37:22.336Z,76.0311
2019-04-30T10:38:28.902Z,75.7595
2019-04-30T10:41:02.338Z,76.9680
2019-04-30T10:43:24.388Z,74.4640
2019-04-30T10:44:33.330Z,75.4910
2019-04-30T10:45:38.963Z,75.4818
2019-04-30T10:46:44.239Z,76.0616
2019-04-30T10:47:49.388Z,77.5402
2019-04-30T10:48:55.003Z,75.5352
2019-04-30T10:51:18.953Z,77.6059
2019-04-30T10:53:43.244Z,77.1969
2019-04-30T10:54:49.675Z,75.6786
2019-04-30T10:57:13.230Z,74.8760
2019-04-30T10:59:43.344Z,76.7575
2019-04-30T11:00:49.985Z,77.0230
2019-04-30T11:01:56.385Z,76.3973
2019-04-30T11:03:16.021Z,76.9421
2019-04-30T11:04:15.185Z,77.3632
2019-04-30T11:05:29.252Z,76.6796
2019-04-30T11:06:34.264Z,75.4711
2019-04-30T11:07:42.306Z,76.5393
2019-04-30T11:10:08.737Z,77.6425
2019-04-30T11:12:32.252Z,78.0133
2019-04-30T11:15:15.297Z,77.4487
2019-04-30T11:16:20.292Z,76.4416
2019-04-30T11:17:25.251Z,76.6384
2019-04-30T11:18:32.459Z,77.1420
2019-04-30T11:19:39.063Z,76.2829
2019-04-30T11:20:44.500Z,78.1781
2019-04-30T11:21:51.843Z,76.6445
2019-04-30T11:22:59.690Z,78.5122
2019-04-30T11:24:04.320Z,77.6455
2019-04-30T11:26:26.593Z,76.1990
2019-04-30T11:27:55.877Z,76.8032
2019-04-30T11:29:02.503Z,78.0453
2019-04-30T11:31:27.145Z,75.8251
2019-04-30T11:32:39.610Z,75.1110
